Time;durP1;ratioP1;P1;durP2;ratioP2;P2;SDS_P1;SDS_P2;PMS_P1;PMS_P2;Temp;Humidity;BMP_temperature;BMP_pressure;BME280_temperature;BME280_humidity;BME280_pressure;Samples;Min_cycle;Max_cycle;Signal;HPM_P1;HPM_P2
2022/10/27 00:00:28;;;;;;;3.90;3.60;;;;;;;22.78;59.90;98318.88;5055933;28;20244;-31
2022/10/27 00:02:55;;;;;;;4.07;3.67;;;;;;;22.79;59.93;98314.59;5051545;28;20212;-31
2022/10/27 00:05:21;;;;;;;3.60;3.30;;;;;;;22.81;59.86;98320.69;5054277;28;20224;-31
2022/10/27 00:07:48;;;;;;;4.20;3.50;;;;;;;22.79;59.90;98317.16;5061818;28;20204;-31
2022/10/27 00:10:15;;;;;;;3.83;3.40;;;;;;;22.82;59.97;98324.97;5056139;28;20221;-31
2022/10/27 00:12:42;;;;;;;3.40;3.10;;;;;;;22.81;59.87;98321.56;5051547;28;20201;-31
2022/10/27 00:15:09;;;;;;;4.50;3.90;;;;;;;22.81;59.96;98325.81;5065002;28;20200;-31
2022/10/27 00:17:35;;;;;;;4.23;3.47;;;;;;;22.80;59.96;98324.91;5063391;28;20214;-31
2022/10/27 00:20:04;;;;;;;3.57;3.27;;;;;;;22.81;59.96;98320.69;5063353;28;20252;-31
2022/10/27 00:22:30;;;;;;;4.13;3.67;;;;;;;22.80;60.11;98324.91;5054113;28;20208;-31
2022/10/27 00:24:57;;;;;;;3.87;3.40;;;;;;;22.80;59.78;98324.91;5057400;28;20232;-31
2022/10/27 00:27:23;;;;;;;3.73;3.40;;;;;;;22.80;59.94;98319.78;5051285;28;20562;-31
2022/10/27 00:29:50;;;;;;;4.50;4.10;;;;;;;22.78;59.87;98320.56;5055837;28;20575;-31
2022/10/27 00:32:16;;;;;;;4.67;3.80;;;;;;;22.80;59.98;98324.06;5051086;28;20878;-31
2022/10/27 00:34:43;;;;;;;4.10;3.67;;;;;;;22.80;59.95;98324.91;5050982;28;20204;-31
2022/10/27 00:37:09;;;;;;;4.27;3.53;;;;;;;22.80;60.24;98332.59;5055914;28;20201;-31
2022/10/27 00:39:36;;;;;;;3.90;3.50;;;;;;;22.77;59.81;98334.19;5049960;28;20603;-31
2022/10/27 00:42:02;;;;;;;3.33;3.03;;;;;;;22.79;60.00;98336.00;5057072;28;20207;-31
2022/10/27 00:44:29;;;;;;;3.77;3.47;;;;;;;22.80;59.75;98340.28;5054244;28;20224;-31
2022/10/27 00:46:56;;;;;;;4.73;3.37;;;;;;;22.78;59.91;98344.50;5051021;28;20223;-31
2022/10/27 00:49:26;;;;;;;3.93;3.50;;;;;;;22.81;59.99;98346.31;5054321;28;20713;-31
2022/10/27 00:51:56;;;;;;;4.27;3.70;;;;;;;22.77;59.82;98344.47;5052931;28;20209;-31
2022/10/27 00:54:22;;;;;;;4.20;3.80;;;;;;;22.70;59.87;98333.09;5027627;28;20539;-31
2022/10/27 00:56:50;;;;;;;4.00;3.60;;;;;;;22.81;59.96;98359.13;5042802;28;20208;-31
2022/10/27 00:59:16;;;;;;;3.80;3.50;;;;;;;22.78;60.34;98344.50;5043812;28;20231;-31
2022/10/27 01:01:43;;;;;;;4.00;3.60;;;;;;;22.72;60.05;98336.59;5054770;28;20199;-31
2022/10/27 01:04:10;;;;;;;3.80;3.50;;;;;;;22.79;59.98;98346.25;5046180;28;20682;-31
2022/10/27 01:06:36;;;;;;;4.40;3.43;;;;;;;22.80;59.94;98347.97;5048814;28;20204;-31
2022/10/27 01:09:03;;;;;;;3.80;3.50;;;;;;;22.81;60.05;98360.00;5050707;28;20221;-31
2022/10/27 01:11:29;;;;;;;3.70;3.40;;;;;;;22.81;59.98;98359.13;5031975;28;20207;-31
2022/10/27 01:13:56;;;;;;;3.77;3.47;;;;;;;22.68;60.00;98339.00;5050143;28;20201;-31
2022/10/27 01:16:30;;;;;;;4.07;3.77;;;;;;;22.72;59.91;98354.53;5039313;28;20217;-31
2022/10/27 01:19:15;;;;;;;4.27;3.50;;;;;;;22.80;60.00;98365.94;5033402;28;20200;-31
2022/10/27 01:21:57;;;;;;;3.90;3.50;;;;;;;22.80;59.79;98362.50;5050326;28;20296;-31
2022/10/27 01:24:39;;;;;;;4.10;3.70;;;;;;;22.80;59.92;98360.78;5043611;28;20204;-31
2022/10/27 01:27:10;;;;;;;3.70;3.30;;;;;;;22.80;60.11;98355.66;5058261;28;20197;-31
2022/10/27 01:30:06;;;;;;;4.10;3.47;;;;;;;22.80;59.96;98360.78;5048512;28;20225;-31
2022/10/27 01:32:37;;;;;;;3.80;3.40;;;;;;;22.80;59.84;98363.34;5052903;28;20216;-31
2022/10/27 01:35:12;;;;;;;3.90;3.50;;;;;;;22.81;59.98;98364.25;5049682;28;20694;-31
2022/10/27 01:37:54;;;;;;;3.70;3.30;;;;;;;22.75;59.97;98352.09;5048296;28;20208;-31
2022/10/27 01:40:29;;;;;;;6.27;3.80;;;;;;;22.68;59.94;98339.00;5037042;28;20216;-31
2022/10/27 01:42:57;;;;;;;3.60;3.30;;;;;;;22.79;60.28;98371.88;5036734;28;20213;-31
2022/10/27 01:45:26;;;;;;;4.17;3.77;;;;;;;22.80;60.13;98365.06;5048109;28;20229;-31
2022/10/27 01:47:54;;;;;;;3.03;2.83;;;;;;;22.68;60.08;98349.25;5047191;28;20227;-31
2022/10/27 01:50:34;;;;;;;3.80;3.50;;;;;;;22.80;60.08;98371.06;5030477;28;20230;-31
2022/10/27 01:53:20;;;;;;;4.00;3.60;;;;;;;22.80;60.04;98376.19;5043848;28;20205;-31
2022/10/27 01:55:59;;;;;;;3.63;3.33;;;;;;;22.80;60.06;98371.06;5049552;28;20205;-31
2022/10/27 01:58:36;;;;;;;3.73;3.43;;;;;;;22.81;60.03;98371.94;5049021;28;20197;-31
2022/10/27 02:01:18;;;;;;;3.63;3.27;;;;;;;22.80;60.17;98358.25;5058312;28;20219;-31
2022/10/27 02:03:56;;;;;;;4.03;3.63;;;;;;;22.81;60.03;98359.13;5052491;28;20201;-31
2022/10/27 02:06:30;;;;;;;3.30;3.10;;;;;;;22.79;60.20;98353.94;5038224;28;20223;-31
2022/10/27 02:09:02;;;;;;;3.53;3.23;;;;;;;22.78;59.97;98361.56;5048310;28;20204;-31
2022/10/27 02:11:28;;;;;;;3.40;3.10;;;;;;;22.74;59.99;98352.88;5039940;28;20274;-31
2022/10/27 02:13:57;;;;;;;3.17;2.87;;;;;;;22.80;60.07;98367.63;5048286;28;20204;-31
2022/10/27 02:16:27;;;;;;;3.30;3.00;;;;;;;22.79;60.04;98371.88;5047451;28;20215;-31
2022/10/27 02:19:07;;;;;;;3.80;3.50;;;;;;;22.79;60.09;98373.56;5060035;28;20686;-31
2022/10/27 02:21:33;;;;;;;3.83;3.10;;;;;;;22.70;59.99;98361.28;5051906;28;20212;-31
2022/10/27 02:24:00;;;;;;;3.40;3.10;;;;;;;22.79;60.09;98378.69;5031270;28;20592;-31
2022/10/27 02:26:30;;;;;;;3.50;3.20;;;;;;;22.80;60.00;98368.50;5050436;28;20243;-31
2022/10/27 02:28:59;;;;;;;3.53;3.23;;;;;;;22.79;60.14;98364.19;5047351;28;20212;-31
2022/10/27 02:31:28;;;;;;;3.53;3.23;;;;;;;22.80;60.08;98362.50;5053109;28;20226;-31
2022/10/27 02:33:56;;;;;;;3.30;3.00;;;;;;;22.80;59.90;98357.38;5047766;28;20205;-31
2022/10/27 02:36:22;;;;;;;3.10;2.80;;;;;;;22.80;60.07;98360.78;5038256;28;20203;-31
2022/10/27 02:38:49;;;;;;;4.63;3.37;;;;;;;22.79;60.13;98353.94;5049824;28;20204;-31
2022/10/27 02:41:15;;;;;;;3.50;3.20;;;;;;;22.71;59.56;98339.94;5053681;28;20682;-31
2022/10/27 02:43:42;;;;;;;3.40;2.97;;;;;;;22.79;60.03;98361.63;5048712;28;20591;-31
2022/10/27 02:46:09;;;;;;;3.43;3.10;;;;;;;22.76;59.93;98365.75;5040505;28;20236;-31
2022/10/27 02:48:35;;;;;;;4.57;2.93;;;;;;;22.78;59.94;98372.72;5050099;28;20212;-31
2022/10/27 02:51:02;;;;;;;3.10;2.90;;;;;;;22.80;59.98;98376.19;5048706;28;20228;-31
2022/10/27 02:53:28;;;;;;;3.20;3.00;;;;;;;22.80;60.19;98380.44;5048913;28;20587;-31
2022/10/27 02:55:54;;;;;;;3.23;2.93;;;;;;;22.80;60.11;98381.31;5048718;28;20196;-31
2022/10/27 02:58:21;;;;;;;3.10;2.80;;;;;;;22.79;59.95;98378.69;5053724;28;20197;-31
2022/10/27 03:00:54;;;;;;;3.47;3.17;;;;;;;22.79;60.03;98382.13;5048481;28;20228;-31
2022/10/27 03:03:22;;;;;;;4.00;3.20;;;;;;;22.78;60.07;98377.81;5047891;28;20574;-31
2022/10/27 03:05:48;;;;;;;3.33;3.03;;;;;;;22.80;60.23;98375.31;5048426;28;20225;-31
2022/10/27 03:08:15;;;;;;;3.70;3.40;;;;;;;22.80;60.05;98372.75;5048778;28;20610;-31
2022/10/27 03:10:44;;;;;;;3.30;3.00;;;;;;;22.80;60.08;98375.31;5049050;28;20730;-31
2022/10/27 03:13:11;;;;;;;3.10;2.90;;;;;;;22.80;60.19;98367.63;5040983;28;20613;-31
2022/10/27 03:15:38;;;;;;;3.20;2.90;;;;;;;22.73;59.89;98358.84;5048554;28;20694;-31
2022/10/27 03:18:04;;;;;;;3.20;2.90;;;;;;;22.76;60.03;98358.94;5048722;28;20669;-31
2022/10/27 03:20:31;;;;;;;3.07;2.87;;;;;;;22.80;59.73;98370.19;5047186;28;20221;-31
2022/10/27 03:22:57;;;;;;;3.47;3.17;;;;;;;22.79;60.04;98377.00;5048486;28;20208;-31
2022/10/27 03:25:24;;;;;;;3.23;2.97;;;;;;;22.79;60.09;98377.00;5048117;28;20718;-31
2022/10/27 03:27:50;;;;;;;3.50;3.20;;;;;;;22.79;60.15;98376.13;5048613;28;20213;-31
2022/10/27 03:30:17;;;;;;;2.70;2.50;;;;;;;22.79;60.05;98382.13;5048636;28;20236;-31
2022/10/27 03:32:45;;;;;;;3.07;2.87;;;;;;;22.79;60.23;98378.69;5052048;28;20208;-31
2022/10/27 03:35:12;;;;;;;3.00;2.80;;;;;;;22.77;59.92;98381.19;5051794;28;20616;-31
2022/10/27 03:37:38;;;;;;;3.23;2.93;;;;;;;22.79;60.05;98387.25;5056991;28;20681;-31
2022/10/27 03:40:05;;;;;;;2.80;2.60;;;;;;;22.80;60.11;98390.69;5048542;28;20217;-31
2022/10/27 03:42:32;;;;;;;3.07;2.80;;;;;;;22.80;60.15;98393.25;5048485;28;20279;-31
2022/10/27 03:44:58;;;;;;;3.47;3.17;;;;;;;22.80;60.24;98393.25;5049238;28;20220;-31
2022/10/27 03:47:25;;;;;;;3.10;2.83;;;;;;;22.80;60.13;98385.56;5047979;28;20689;-31
2022/10/27 03:49:51;;;;;;;3.20;2.90;;;;;;;22.80;60.09;98389.00;5052585;28;20236;-31
2022/10/27 03:52:18;;;;;;;2.87;2.67;;;;;;;22.81;60.11;98387.31;5048402;28;20201;-31
2022/10/27 03:54:45;;;;;;;3.07;2.77;;;;;;;22.81;59.87;98387.31;5048770;28;20209;-31
2022/10/27 03:57:12;;;;;;;3.20;2.90;;;;;;;22.80;60.08;98393.25;5050670;28;20193;-31
2022/10/27 03:59:38;;;;;;;3.37;3.07;;;;;;;22.79;60.10;98384.69;5051435;28;20242;-31
2022/10/27 04:02:05;;;;;;;2.90;2.70;;;;;;;22.80;59.88;98390.69;5052064;28;20217;-31
2022/10/27 04:04:33;;;;;;;2.87;2.67;;;;;;;22.77;60.02;98385.47;5051599;28;20235;-31
2022/10/27 04:06:59;;;;;;;2.83;2.53;;;;;;;22.79;60.14;98389.81;5051560;28;20224;-31
2022/10/27 04:09:26;;;;;;;3.03;2.80;;;;;;;22.79;60.01;98391.50;5057577;28;20224;-31
2022/10/27 04:11:52;;;;;;;2.90;2.70;;;;;;;22.79;60.10;98399.19;5058661;28;20292;-31
2022/10/27 04:14:19;;;;;;;3.00;2.80;;;;;;;22.79;59.98;98388.94;5050542;28;20204;-31
2022/10/27 04:16:50;;;;;;;2.90;2.70;;;;;;;22.76;60.08;98384.56;5051012;28;20216;-31
2022/10/27 04:19:17;;;;;;;2.90;2.70;;;;;;;22.79;60.04;98397.50;5051494;28;20221;-31
2022/10/27 04:21:44;;;;;;;3.03;2.83;;;;;;;22.74;59.89;98383.63;5051556;28;20215;-31
2022/10/27 04:24:11;;;;;;;3.00;2.80;;;;;;;22.80;60.15;98398.38;5049849;28;20227;-31
2022/10/27 04:26:38;;;;;;;3.23;2.93;;;;;;;22.80;60.14;98393.25;5057952;28;20224;-31
2022/10/27 04:29:04;;;;;;;3.00;2.70;;;;;;;22.79;60.16;98394.94;5057130;28;20215;-31
2022/10/27 04:31:31;;;;;;;2.67;2.47;;;;;;;22.79;60.38;98394.94;5052751;28;20219;-31
2022/10/27 04:33:58;;;;;;;2.90;2.70;;;;;;;22.76;59.94;98388.81;5056276;28;20205;-31
2022/10/27 04:36:25;;;;;;;3.37;2.60;;;;;;;22.80;60.09;98394.13;5050977;28;20193;-31
2022/10/27 04:38:51;;;;;;;2.77;2.57;;;;;;;22.78;60.16;98395.78;5050916;28;20232;-31
2022/10/27 04:41:18;;;;;;;2.90;2.70;;;;;;;22.79;60.24;98389.81;5055655;28;20208;-31
2022/10/27 04:43:48;;;;;;;2.90;2.70;;;;;;;22.81;60.07;98402.69;5057757;28;20288;-31
2022/10/27 04:46:20;;;;;;;2.80;2.60;;;;;;;22.78;60.12;98387.19;5050884;28;20235;-31
2022/10/27 04:48:46;;;;;;;2.80;2.60;;;;;;;22.75;60.17;98384.53;5058807;28;20591;-31
2022/10/27 04:51:13;;;;;;;3.10;2.90;;;;;;;22.72;60.27;98387.84;5051927;28;20208;-31
2022/10/27 04:53:44;;;;;;;2.70;2.50;;;;;;;22.80;60.16;98399.25;5050098;28;20205;-31
2022/10/27 04:56:11;;;;;;;3.30;3.00;;;;;;;22.13;60.15;98286.41;5050567;28;20239;-31
2022/10/27 04:58:37;;;;;;;3.47;2.80;;;;;;;22.79;59.88;98407.75;5050661;28;20216;-31
2022/10/27 05:01:07;;;;;;;2.50;2.30;;;;;;;22.80;60.13;98414.63;5051106;28;20243;-31
2022/10/27 05:03:34;;;;;;;2.40;2.20;;;;;;;22.80;60.30;98412.06;5055801;28;20224;-31
2022/10/27 05:06:01;;;;;;;2.80;2.50;;;;;;;22.77;60.26;98411.09;5055772;28;20224;-31
2022/10/27 05:08:27;;;;;;;2.60;2.40;;;;;;;22.77;60.02;98439.28;5050006;28;20201;-31
2022/10/27 05:10:54;;;;;;;2.20;2.00;;;;;;;22.80;59.99;98426.59;5051245;28;20889;-31
2022/10/27 05:13:20;;;;;;;2.97;2.77;;;;;;;22.80;60.14;98427.44;5049696;28;20208;-32
2022/10/27 05:15:47;;;;;;;2.60;2.40;;;;;;;22.80;60.14;98416.34;5050098;28;20667;-31
2022/10/27 05:18:14;;;;;;;3.00;2.70;;;;;;;22.80;60.06;98419.75;5050033;28;20205;-31
2022/10/27 05:20:40;;;;;;;2.63;2.43;;;;;;;22.80;60.07;98424.88;5057672;28;20232;-31
2022/10/27 05:23:07;;;;;;;2.70;2.50;;;;;;;22.81;60.65;98423.19;5055392;28;20590;-31
2022/10/27 05:25:33;;;;;;;2.77;2.47;;;;;;;22.81;60.07;98423.19;5050021;28;20228;-31
2022/10/27 05:28:04;;;;;;;2.70;2.50;;;;;;;22.81;60.19;98416.38;5052173;28;20676;-31
2022/10/27 05:30:30;;;;;;;2.70;2.50;;;;;;;22.82;60.15;98419.81;5050529;28;20224;-31
2022/10/27 05:32:57;;;;;;;2.77;2.57;;;;;;;22.80;60.09;98419.75;5050091;28;20219;-31
2022/10/27 05:35:23;;;;;;;2.50;2.30;;;;;;;22.81;60.03;98428.31;5049258;28;20205;-31
2022/10/27 05:37:50;;;;;;;2.67;2.47;;;;;;;22.82;60.31;98432.63;5057882;28;20212;-31
2022/10/27 05:40:17;;;;;;;2.33;2.23;;;;;;;22.81;60.10;98418.97;5049580;28;20213;-31
2022/10/27 05:42:51;;;;;;;2.63;2.43;;;;;;;22.81;60.12;98424.06;5049867;28;20211;-31
2022/10/27 05:45:18;;;;;;;2.73;2.53;;;;;;;22.82;60.13;98422.38;5049330;28;20199;-31
2022/10/27 05:47:45;;;;;;;2.50;2.30;;;;;;;22.83;60.11;98429.25;5050175;28;20212;-31
2022/10/27 05:50:12;;;;;;;2.97;2.40;;;;;;;22.82;60.12;98430.06;5049712;28;20507;-31
2022/10/27 05:52:38;;;;;;;2.60;2.40;;;;;;;22.82;59.84;98427.50;5059889;28;20664;-31
2022/10/27 05:55:05;;;;;;;2.60;2.40;;;;;;;22.80;60.16;98432.56;5052351;28;20207;-31
2022/10/27 05:57:31;;;;;;;2.70;2.50;;;;;;;22.81;60.10;98434.34;5051087;28;20197;-31
2022/10/27 05:59:58;;;;;;;2.50;2.30;;;;;;;22.82;60.04;98433.50;5058185;28;20495;-31
2022/10/27 06:02:24;;;;;;;2.50;2.30;;;;;;;22.83;60.04;98431.81;5049366;28;20208;-31
2022/10/27 06:04:51;;;;;;;2.50;2.30;;;;;;;22.82;60.25;98424.94;5051447;28;20209;-31
2022/10/27 06:07:18;;;;;;;2.37;2.17;;;;;;;22.82;60.08;98433.50;5047575;28;20734;-31
2022/10/27 06:09:44;;;;;;;2.50;2.30;;;;;;;22.82;60.10;98433.50;5060291;28;20257;-31
2022/10/27 06:12:10;;;;;;;2.70;2.50;;;;;;;22.82;59.97;98430.06;5048889;28;20220;-31
2022/10/27 06:14:37;;;;;;;2.40;2.20;;;;;;;22.82;60.08;98433.50;5049287;28;20201;-31
2022/10/27 06:17:04;;;;;;;2.57;2.37;;;;;;;22.83;60.11;98434.38;5049173;28;20197;-31
2022/10/27 06:19:30;;;;;;;2.70;2.50;;;;;;;22.83;60.18;98439.53;5048716;28;20633;-31
2022/10/27 06:21:57;;;;;;;2.50;2.30;;;;;;;22.82;60.11;98445.44;5049442;28;20204;-31
2022/10/27 06:24:23;;;;;;;2.90;2.70;;;;;;;22.82;60.12;98443.75;5049243;28;20201;-31
2022/10/27 06:26:50;;;;;;;2.30;2.10;;;;;;;22.83;60.09;98439.53;5045417;28;20225;-31
2022/10/27 06:29:22;;;;;;;2.63;2.43;;;;;;;22.83;60.04;98444.66;5049016;28;20444;-31
2022/10/27 06:31:48;;;;;;;2.47;2.27;;;;;;;22.83;60.05;98448.06;5060780;28;20207;-31
2022/10/27 06:34:15;;;;;;;2.33;2.13;;;;;;;22.83;60.04;98458.31;5048819;28;20200;-31
2022/10/27 06:36:41;;;;;;;2.40;2.20;;;;;;;22.83;60.10;98444.66;5048430;28;20197;-31
2022/10/27 06:39:08;;;;;;;2.70;2.50;;;;;;;22.80;60.21;98458.19;5054085;28;20228;-31
2022/10/27 06:41:34;;;;;;;2.57;2.37;;;;;;;22.79;60.30;98451.31;5048550;28;20702;-31
2022/10/27 06:44:01;;;;;;;2.47;2.27;;;;;;;22.84;60.17;98461.75;5051660;28;20204;-31
2022/10/27 06:46:27;;;;;;;2.37;2.17;;;;;;;22.83;60.03;98465.16;5049343;28;20217;-31
2022/10/27 06:48:54;;;;;;;2.70;2.50;;;;;;;22.83;60.16;98463.44;5051569;28;20209;-31
2022/10/27 06:51:20;;;;;;;2.90;2.50;;;;;;;22.83;60.11;98467.72;5054228;28;20667;-31
2022/10/27 06:53:47;;;;;;;2.67;2.47;;;;;;;22.82;60.09;98471.94;5047922;28;20204;-31
2022/10/27 06:56:13;;;;;;;2.33;2.13;;;;;;;22.84;60.05;98477.13;5048574;28;20216;-31
2022/10/27 06:58:40;;;;;;;2.57;2.37;;;;;;;22.84;60.13;98474.56;5050126;28;20233;-31
2022/10/27 07:01:07;;;;;;;2.80;2.53;;;;;;;22.77;60.03;98464.91;5051609;28;20236;-31
2022/10/27 07:03:34;;;;;;;2.97;2.60;;;;;;;22.84;60.08;98469.44;5047013;28;20200;-31
2022/10/27 07:06:01;;;;;;;2.60;2.40;;;;;;;22.83;60.18;98472.84;5054193;28;20230;-30
2022/10/27 07:08:27;;;;;;;2.67;2.47;;;;;;;22.83;60.19;98477.97;5048725;28;20237;-31
2022/10/27 07:10:54;;;;;;;3.00;2.70;;;;;;;22.83;60.11;98470.28;5049056;28;20714;-31
2022/10/27 07:13:20;;;;;;;2.50;2.30;;;;;;;22.78;60.38;98461.53;5053034;28;20227;-31
2022/10/27 07:15:47;;;;;;;2.60;2.40;;;;;;;22.83;60.52;98480.53;5054563;28;20216;-31
2022/10/27 07:18:13;;;;;;;3.50;2.70;;;;;;;22.84;59.74;98474.56;5052716;28;20223;-31
2022/10/27 07:20:40;;;;;;;2.27;2.07;;;;;;;22.84;60.38;98472.00;5059416;28;20229;-31
2022/10/27 07:23:07;;;;;;;2.40;2.20;;;;;;;22.83;60.11;98472.84;5053534;28;20196;-31
2022/10/27 07:25:33;;;;;;;2.47;2.27;;;;;;;22.84;60.08;98474.56;5052227;28;20204;-31
2022/10/27 07:28:02;;;;;;;2.37;2.17;;;;;;;22.84;60.05;98472.00;5048457;28;20224;-31
2022/10/27 07:30:29;;;;;;;2.50;2.30;;;;;;;22.83;60.12;98477.97;5050093;28;20676;-31
2022/10/27 07:32:56;;;;;;;2.23;2.10;;;;;;;22.84;60.09;98479.69;5052048;28;20250;-31
2022/10/27 07:35:23;;;;;;;2.30;2.10;;;;;;;22.82;60.10;98477.09;5051590;28;20209;-32
2022/10/27 07:37:50;;;;;;;2.47;2.10;;;;;;;22.79;60.20;98469.28;5052401;28;20211;-31
2022/10/27 07:40:18;;;;;;;2.40;2.20;;;;;;;22.83;60.12;98476.25;5051719;28;20225;-31
2022/10/27 07:42:49;;;;;;;2.57;2.37;;;;;;;22.83;60.10;98483.94;5052537;28;20208;-31
2022/10/27 07:45:17;;;;;;;2.60;2.40;;;;;;;22.83;60.04;98483.09;5051630;28;20809;-31
2022/10/27 07:47:45;;;;;;;2.43;2.23;;;;;;;22.84;60.13;98487.41;5052089;28;20225;-31
2022/10/27 07:50:15;;;;;;;2.57;2.37;;;;;;;22.64;60.21;98458.41;5051821;28;20306;-31
2022/10/27 07:52:43;;;;;;;2.80;2.20;;;;;;;22.84;60.16;98484.84;5058147;28;20235;-31
2022/10/27 07:55:10;;;;;;;2.30;2.10;;;;;;;22.83;60.11;98489.06;5046209;28;20205;-31
2022/10/27 07:57:41;;;;;;;2.53;2.33;;;;;;;22.83;60.11;98491.63;5051993;28;20197;-31
2022/10/27 08:00:10;;;;;;;2.43;2.23;;;;;;;22.81;60.15;98483.03;5051801;28;20747;-31
2022/10/27 08:02:36;;;;;;;2.37;2.17;;;;;;;22.84;60.08;98488.28;5051352;28;20280;-31
2022/10/27 08:05:03;;;;;;;2.67;2.20;;;;;;;22.83;60.10;98498.47;5051833;28;20208;-31
2022/10/27 08:07:29;;;;;;;3.07;2.67;;;;;;;22.83;60.14;98506.16;5059798;28;20224;-31
2022/10/27 08:09:57;;;;;;;2.10;2.00;;;;;;;22.83;60.10;98512.13;5061140;28;20228;-31
2022/10/27 08:12:23;;;;;;;2.50;2.23;;;;;;;22.83;60.16;98507.00;5054051;28;20212;-31
2022/10/27 08:14:50;;;;;;;2.13;2.03;;;;;;;22.82;59.64;98500.16;5051424;28;20223;-31
2022/10/27 08:17:21;;;;;;;2.17;1.97;;;;;;;22.83;60.17;98504.44;5051081;28;20747;-31
2022/10/27 08:19:48;;;;;;;2.43;2.23;;;;;;;22.82;60.10;98500.16;5051603;28;20232;-31
2022/10/27 08:22:14;;;;;;;2.50;2.30;;;;;;;22.83;60.17;98503.59;5063442;28;20200;-31
2022/10/27 08:24:41;;;;;;;2.40;2.20;;;;;;;22.84;60.15;98505.34;5052680;28;20590;-31
2022/10/27 08:27:07;;;;;;;2.03;1.93;;;;;;;22.83;60.08;98509.56;5051179;28;20226;-31
2022/10/27 08:29:34;;;;;;;2.43;2.23;;;;;;;22.84;60.16;98505.34;5051434;28;20447;-31
2022/10/27 08:32:00;;;;;;;2.10;2.00;;;;;;;22.85;60.48;98509.63;5051288;28;20200;-31
2022/10/27 08:34:27;;;;;;;2.17;2.00;;;;;;;22.81;60.08;98506.09;5055628;28;20207;-31
2022/10/27 08:36:53;;;;;;;2.20;2.00;;;;;;;22.81;60.15;98505.22;5051066;28;20579;-31
2022/10/27 08:39:20;;;;;;;2.27;2.07;;;;;;;22.84;60.15;98507.91;5050437;28;20229;-31
2022/10/27 08:42:11;;;;;;;2.60;2.40;;;;;;;22.84;60.35;98511.34;5049997;28;20626;-31
2022/10/27 08:45:07;;;;;;;2.47;2.23;;;;;;;22.84;60.04;98513.91;5057816;28;20635;-31
2022/10/27 08:47:33;;;;;;;2.30;2.10;;;;;;;22.83;60.08;98514.69;5048689;28;20737;-31
2022/10/27 08:50:03;;;;;;;2.33;2.13;;;;;;;22.84;60.01;98516.47;5050285;28;20228;-31
2022/10/27 08:52:39;;;;;;;2.10;2.00;;;;;;;22.84;60.12;98510.47;5054074;28;20205;-31
2022/10/27 08:55:19;;;;;;;2.43;2.23;;;;;;;22.83;60.14;98509.56;5051657;28;20197;-31
2022/10/27 08:57:54;;;;;;;2.20;2.00;;;;;;;22.83;60.18;98511.28;5049905;28;20212;-31
2022/10/27 09:00:20;;;;;;;2.10;2.00;;;;;;;22.83;60.51;98509.56;5048872;28;20224;-31
2022/10/27 09:03:06;;;;;;;2.20;2.00;;;;;;;22.81;60.18;98503.53;5050406;28;20211;-31
2022/10/27 09:05:59;;;;;;;2.13;2.03;;;;;;;22.84;60.10;98497.66;5049793;28;20205;-31
2022/10/27 09:08:50;;;;;;;2.40;2.20;;;;;;;22.81;60.20;98493.28;5049117;28;20228;-31
2022/10/27 09:11:38;;;;;;;2.40;2.20;;;;;;;22.83;60.16;98501.88;5053226;28;20231;-31
2022/10/27 09:14:16;;;;;;;2.33;2.13;;;;;;;22.85;60.20;98504.50;5058244;28;20197;-31
2022/10/27 09:17:35;;;;;;;2.37;2.10;;;;;;;22.84;60.08;98502.78;5051475;28;20251;-31
2022/10/27 09:20:07;;;;;;;2.20;2.00;;;;;;;22.83;60.12;98509.56;5033893;28;20220;-31
2022/10/27 09:22:36;;;;;;;2.10;2.00;;;;;;;22.76;60.15;98491.34;5043996;28;20204;-31
2022/10/27 09:25:18;;;;;;;2.30;2.10;;;;;;;22.83;60.20;98499.31;5023794;28;20547;-31
2022/10/27 09:27:46;;;;;;;2.20;2.00;;;;;;;22.78;60.16;98493.16;5052074;28;20228;-31
2022/10/27 09:30:12;;;;;;;2.20;2.10;;;;;;;22.79;60.22;98500.03;5034670;28;20719;-31
2022/10/27 09:32:40;;;;;;;2.00;1.90;;;;;;;22.76;60.10;98491.34;5049191;28;20200;-31
2022/10/27 09:35:11;;;;;;;2.40;2.20;;;;;;;22.84;60.17;98507.91;5047990;28;20204;-31
2022/10/27 09:37:41;;;;;;;2.30;2.10;;;;;;;22.83;60.14;98504.44;5051868;28;20204;-31
2022/10/27 09:40:11;;;;;;;2.30;2.10;;;;;;;22.84;60.21;98505.34;5040488;28;20762;-31
2022/10/27 09:42:38;;;;;;;2.10;2.00;;;;;;;22.78;60.13;98495.72;5044503;28;20204;-31
2022/10/27 09:45:12;;;;;;;2.23;2.07;;;;;;;22.84;60.11;98503.66;5033217;28;20599;-31
2022/10/27 09:47:39;;;;;;;3.30;2.00;;;;;;;22.84;60.18;98506.22;5049333;28;20228;-31
2022/10/27 09:50:12;;;;;;;2.20;2.03;;;;;;;22.84;60.09;98506.22;5039512;28;20220;-31
2022/10/27 09:52:43;;;;;;;2.33;2.13;;;;;;;22.84;60.12;98510.47;5050268;28;20212;-31
2022/10/27 09:55:09;;;;;;;2.37;2.17;;;;;;;22.84;60.16;98516.47;5040848;28;20208;-31
2022/10/27 09:57:37;;;;;;;2.10;2.00;;;;;;;22.74;59.82;98490.41;5049455;28;20199;-31
2022/10/27 10:00:20;;;;;;;2.40;1.90;;;;;;;22.83;60.24;98506.16;5048452;28;20678;-31
2022/10/27 10:02:56;;;;;;;2.37;2.17;;;;;;;22.84;60.13;98507.91;5050444;28;20205;-31
2022/10/27 10:05:30;;;;;;;2.63;2.43;;;;;;;22.83;60.25;98496.75;5057304;28;20204;-31
2022/10/27 10:08:18;;;;;;;2.40;2.20;;;;;;;22.84;60.11;98485.72;5063190;28;20584;-31
2022/10/27 10:10:54;;;;;;;2.97;2.07;;;;;;;22.84;60.09;98500.22;5049532;28;20233;-31
2022/10/27 10:13:22;;;;;;;2.00;1.87;;;;;;;22.83;60.10;98496.75;5042507;28;20211;-31
2022/10/27 10:16:02;;;;;;;2.30;2.10;;;;;;;22.85;60.07;98507.06;5048981;28;20213;-31
2022/10/27 10:18:29;;;;;;;2.40;2.20;;;;;;;22.79;60.21;98494.00;5042173;28;20202;-31
2022/10/27 10:21:09;;;;;;;2.40;2.20;;;;;;;22.84;60.15;98498.53;5046146;28;20635;-31
2022/10/27 10:23:49;;;;;;;2.40;2.20;;;;;;;22.83;60.10;98501.88;5050891;28;20211;-31
2022/10/27 10:26:18;;;;;;;2.40;2.20;;;;;;;22.84;60.23;98501.09;5046018;28;20216;-31
2022/10/27 10:28:44;;;;;;;2.30;2.00;;;;;;;22.84;60.24;98497.66;5047293;28;20228;-31
2022/10/27 10:31:12;;;;;;;2.27;2.07;;;;;;;22.84;60.32;98484.84;5051393;28;20219;-31
2022/10/27 10:33:43;;;;;;;2.40;2.20;;;;;;;22.84;60.20;98477.13;5034423;28;20204;-31
2022/10/27 10:36:28;;;;;;;2.30;2.10;;;;;;;22.84;60.18;98477.13;5047682;28;20208;-31
2022/10/27 10:38:56;;;;;;;2.47;2.27;;;;;;;22.72;60.14;98457.03;5050578;28;20283;-31
2022/10/27 10:41:23;;;;;;;2.23;2.03;;;;;;;22.84;60.15;98469.44;5054488;28;20644;-31
2022/10/27 10:44:12;;;;;;;2.07;1.97;;;;;;;22.78;60.18;98449.59;5052714;28;20741;-31
2022/10/27 10:46:48;;;;;;;2.10;2.00;;;;;;;22.79;60.07;98446.19;5047277;28;20566;-31
2022/10/27 10:49:18;;;;;;;2.30;2.10;;;;;;;22.78;60.12;98435.88;5044793;28;20231;-31
2022/10/27 10:51:51;;;;;;;2.27;2.10;;;;;;;22.84;60.20;98443.81;5060313;28;20215;-31
2022/10/27 10:54:39;;;;;;;2.37;2.17;;;;;;;22.83;60.12;98440.38;5055715;28;20204;-31
2022/10/27 10:57:26;;;;;;;2.30;2.00;;;;;;;22.85;60.08;98445.56;5051030;28;20548;-31
2022/10/27 10:59:57;;;;;;;2.30;2.10;;;;;;;22.84;60.17;98443.81;5048695;28;20231;-31
2022/10/27 11:02:30;;;;;;;2.23;2.10;;;;;;;22.85;60.12;98443.00;5055752;28;20686;-31
2022/10/27 11:05:08;;;;;;;2.43;2.23;;;;;;;22.79;60.14;98429.94;5051021;28;20203;-31
2022/10/27 11:07:34;;;;;;;2.20;2.00;;;;;;;22.81;60.10;98439.47;5053146;28;20228;-31
2022/10/27 11:10:14;;;;;;;2.00;1.90;;;;;;;22.81;60.12;98429.22;5052079;28;20239;-31
2022/10/27 11:12:42;;;;;;;1.90;1.80;;;;;;;22.84;60.13;98437.00;5051124;28;20212;-30
2022/10/27 11:15:38;;;;;;;2.30;2.10;;;;;;;22.85;60.15;98437.88;5043420;28;20209;-31
2022/10/27 11:18:20;;;;;;;2.20;2.00;;;;;;;22.84;60.17;98433.56;5051816;28;20765;-31
2022/10/27 11:20:48;;;;;;;2.30;2.10;;;;;;;22.76;60.19;98410.19;5058757;28;20231;-31
2022/10/27 11:23:27;;;;;;;2.10;2.00;;;;;;;22.84;60.17;98424.19;5044702;28;20198;-31
2022/10/27 11:25:55;;;;;;;2.47;2.27;;;;;;;22.74;60.11;98400.72;5037248;28;20224;-31
2022/10/27 11:28:26;;;;;;;2.30;2.10;;;;;;;22.74;60.04;98400.72;5044376;28;20251;-31
2022/10/27 11:31:03;;;;;;;2.30;2.10;;;;;;;22.78;60.15;98400.00;5033020;28;20221;-31
2022/10/27 11:33:42;;;;;;;2.03;1.93;;;;;;;22.84;60.11;98419.06;5035859;28;20214;-31
2022/10/27 11:36:18;;;;;;;2.10;2.00;;;;;;;22.84;60.18;98413.94;5061657;28;20215;-32
2022/10/27 11:39:06;;;;;;;2.47;2.27;;;;;;;22.84;60.21;98410.50;5060016;28;20199;-31
2022/10/27 11:41:42;;;;;;;2.00;1.90;;;;;;;22.84;60.16;98413.06;5052161;28;20220;-31
2022/10/27 11:44:25;;;;;;;2.50;2.30;;;;;;;22.84;60.23;98403.69;5050237;28;20200;-31
2022/10/27 11:46:57;;;;;;;2.43;2.23;;;;;;;22.83;60.02;98404.47;5032379;28;20209;-31